sensor_id;sensor_type;location;lat;lon;timestamp;P1;durP1;ratioP1;P2;durP2;ratioP2
21444;SDS011;10883;51.946;20.140;2023-05-15T00:00:03;7.25;;;3.10;;
21444;SDS011;10883;51.946;20.140;2023-05-15T00:02:30;7.13;;;2.97;;
21444;SDS011;10883;51.946;20.140;2023-05-15T00:04:58;5.07;;;3.10;;
21444;SDS011;10883;51.946;20.140;2023-05-15T00:07:24;8.38;;;3.30;;
21444;SDS011;10883;51.946;20.140;2023-05-15T00:09:50;8.43;;;4.03;;
21444;SDS011;10883;51.946;20.140;2023-05-15T00:12:16;6.45;;;3.35;;
21444;SDS011;10883;51.946;20.140;2023-05-15T00:14:42;4.40;;;3.50;;
21444;SDS011;10883;51.946;20.140;2023-05-15T00:17:08;7.10;;;3.60;;
21444;SDS011;10883;51.946;20.140;2023-05-15T00:19:34;6.68;;;3.30;;
21444;SDS011;10883;51.946;20.140;2023-05-15T00:21:59;6.32;;;3.33;;
21444;SDS011;10883;51.946;20.140;2023-05-15T00:24:25;8.23;;;3.38;;
21444;SDS011;10883;51.946;20.140;2023-05-15T00:26:51;13.43;;;3.40;;
21444;SDS011;10883;51.946;20.140;2023-05-15T00:29:17;4.88;;;3.20;;
21444;SDS011;10883;51.946;20.140;2023-05-15T00:31:42;7.80;;;3.50;;
21444;SDS011;10883;51.946;20.140;2023-05-15T00:34:08;5.20;;;3.50;;
21444;SDS011;10883;51.946;20.140;2023-05-15T00:36:34;5.63;;;3.58;;
21444;SDS011;10883;51.946;20.140;2023-05-15T00:39:00;6.45;;;3.15;;
21444;SDS011;10883;51.946;20.140;2023-05-15T00:41:26;7.22;;;3.55;;
21444;SDS011;10883;51.946;20.140;2023-05-15T00:43:52;5.22;;;3.63;;
21444;SDS011;10883;51.946;20.140;2023-05-15T00:46:20;8.35;;;4.07;;
21444;SDS011;10883;51.946;20.140;2023-05-15T00:48:47;6.03;;;3.38;;
21444;SDS011;10883;51.946;20.140;2023-05-15T00:51:15;7.15;;;3.88;;
21444;SDS011;10883;51.946;20.140;2023-05-15T00:53:41;6.20;;;3.67;;
21444;SDS011;10883;51.946;20.140;2023-05-15T00:56:07;9.18;;;3.88;;
21444;SDS011;10883;51.946;20.140;2023-05-15T00:58:35;6.30;;;3.92;;
21444;SDS011;10883;51.946;20.140;2023-05-15T01:01:01;7.50;;;3.45;;
21444;SDS011;10883;51.946;20.140;2023-05-15T01:03:27;7.15;;;3.65;;
21444;SDS011;10883;51.946;20.140;2023-05-15T01:05:53;8.07;;;3.30;;
21444;SDS011;10883;51.946;20.140;2023-05-15T01:08:25;5.22;;;3.75;;
21444;SDS011;10883;51.946;20.140;2023-05-15T01:10:55;9.57;;;3.72;;
21444;SDS011;10883;51.946;20.140;2023-05-15T01:13:22;6.50;;;3.58;;
21444;SDS011;10883;51.946;20.140;2023-05-15T01:15:48;7.07;;;3.58;;
21444;SDS011;10883;51.946;20.140;2023-05-15T01:18:14;6.53;;;3.88;;
21444;SDS011;10883;51.946;20.140;2023-05-15T01:20:46;8.60;;;3.95;;
21444;SDS011;10883;51.946;20.140;2023-05-15T01:23:30;5.82;;;3.65;;
21444;SDS011;10883;51.946;20.140;2023-05-15T01:26:32;4.47;;;3.40;;
21444;SDS011;10883;51.946;20.140;2023-05-15T01:31:53;5.22;;;3.78;;
21444;SDS011;10883;51.946;20.140;2023-05-15T01:34:37;3.75;;;3.30;;
21444;SDS011;10883;51.946;20.140;2023-05-15T01:37:41;4.97;;;3.45;;
21444;SDS011;10883;51.946;20.140;2023-05-15T01:40:10;6.57;;;3.65;;
21444;SDS011;10883;51.946;20.140;2023-05-15T01:42:41;5.93;;;3.45;;
21444;SDS011;10883;51.946;20.140;2023-05-15T01:45:11;8.18;;;3.55;;
21444;SDS011;10883;51.946;20.140;2023-05-15T01:47:39;6.18;;;3.72;;
21444;SDS011;10883;51.946;20.140;2023-05-15T01:50:09;10.50;;;3.83;;
21444;SDS011;10883;51.946;20.140;2023-05-15T01:52:39;7.60;;;3.90;;
21444;SDS011;10883;51.946;20.140;2023-05-15T01:55:16;6.60;;;3.88;;
21444;SDS011;10883;51.946;20.140;2023-05-15T01:57:46;9.20;;;3.58;;
21444;SDS011;10883;51.946;20.140;2023-05-15T02:00:13;6.97;;;3.50;;
21444;SDS011;10883;51.946;20.140;2023-05-15T02:02:41;5.53;;;4.47;;
21444;SDS011;10883;51.946;20.140;2023-05-15T02:05:08;8.02;;;4.07;;
21444;SDS011;10883;51.946;20.140;2023-05-15T02:07:34;6.65;;;3.42;;
21444;SDS011;10883;51.946;20.140;2023-05-15T02:10:01;6.57;;;4.18;;
21444;SDS011;10883;51.946;20.140;2023-05-15T02:12:27;7.25;;;3.88;;
21444;SDS011;10883;51.946;20.140;2023-05-15T02:14:54;5.43;;;3.95;;
21444;SDS011;10883;51.946;20.140;2023-05-15T02:17:22;4.82;;;3.65;;
21444;SDS011;10883;51.946;20.140;2023-05-15T02:19:48;6.57;;;4.05;;
21444;SDS011;10883;51.946;20.140;2023-05-15T02:22:14;7.20;;;3.55;;
21444;SDS011;10883;51.946;20.140;2023-05-15T02:24:40;6.13;;;3.72;;
21444;SDS011;10883;51.946;20.140;2023-05-15T02:32:13;4.57;;;3.28;;
21444;SDS011;10883;51.946;20.140;2023-05-15T02:35:02;5.60;;;3.50;;
21444;SDS011;10883;51.946;20.140;2023-05-15T02:37:33;6.43;;;3.60;;
21444;SDS011;10883;51.946;20.140;2023-05-15T02:40:02;7.13;;;3.70;;
21444;SDS011;10883;51.946;20.140;2023-05-15T02:42:31;11.50;;;4.10;;
21444;SDS011;10883;51.946;20.140;2023-05-15T02:44:58;10.60;;;4.65;;
21444;SDS011;10883;51.946;20.140;2023-05-15T02:47:25;7.00;;;4.25;;
21444;SDS011;10883;51.946;20.140;2023-05-15T02:49:53;6.13;;;4.00;;
21444;SDS011;10883;51.946;20.140;2023-05-15T02:52:19;6.20;;;4.38;;
21444;SDS011;10883;51.946;20.140;2023-05-15T02:54:46;6.78;;;4.47;;
21444;SDS011;10883;51.946;20.140;2023-05-15T02:57:12;6.80;;;4.63;;
21444;SDS011;10883;51.946;20.140;2023-05-15T02:59:38;8.77;;;4.68;;
21444;SDS011;10883;51.946;20.140;2023-05-15T03:02:04;11.32;;;4.85;;
21444;SDS011;10883;51.946;20.140;2023-05-15T03:04:30;9.93;;;4.85;;
21444;SDS011;10883;51.946;20.140;2023-05-15T03:06:55;6.60;;;4.47;;
21444;SDS011;10883;51.946;20.140;2023-05-15T03:09:21;8.35;;;4.60;;
21444;SDS011;10883;51.946;20.140;2023-05-15T03:11:47;8.70;;;4.68;;
21444;SDS011;10883;51.946;20.140;2023-05-15T03:14:13;8.57;;;4.93;;
21444;SDS011;10883;51.946;20.140;2023-05-15T03:16:39;9.65;;;5.13;;
21444;SDS011;10883;51.946;20.140;2023-05-15T03:19:04;10.10;;;4.85;;
21444;SDS011;10883;51.946;20.140;2023-05-15T03:21:30;7.93;;;4.90;;
21444;SDS011;10883;51.946;20.140;2023-05-15T03:23:56;7.45;;;4.88;;
21444;SDS011;10883;51.946;20.140;2023-05-15T03:26:22;7.43;;;4.53;;
21444;SDS011;10883;51.946;20.140;2023-05-15T03:28:48;7.85;;;4.55;;
21444;SDS011;10883;51.946;20.140;2023-05-15T03:31:13;10.07;;;5.32;;
21444;SDS011;10883;51.946;20.140;2023-05-15T03:33:39;6.70;;;5.18;;
21444;SDS011;10883;51.946;20.140;2023-05-15T03:36:06;7.50;;;5.40;;
21444;SDS011;10883;51.946;20.140;2023-05-15T03:38:32;7.55;;;5.50;;
21444;SDS011;10883;51.946;20.140;2023-05-15T03:40:57;9.82;;;5.70;;
21444;SDS011;10883;51.946;20.140;2023-05-15T03:43:23;7.80;;;5.30;;
21444;SDS011;10883;51.946;20.140;2023-05-15T03:45:49;5.57;;;4.88;;
21444;SDS011;10883;51.946;20.140;2023-05-15T03:48:15;10.02;;;5.40;;
21444;SDS011;10883;51.946;20.140;2023-05-15T03:50:41;8.55;;;4.93;;
21444;SDS011;10883;51.946;20.140;2023-05-15T03:53:08;6.63;;;4.85;;
21444;SDS011;10883;51.946;20.140;2023-05-15T03:55:34;8.70;;;6.03;;
21444;SDS011;10883;51.946;20.140;2023-05-15T03:58:00;10.25;;;6.22;;
21444;SDS011;10883;51.946;20.140;2023-05-15T04:00:26;7.30;;;5.55;;
21444;SDS011;10883;51.946;20.140;2023-05-15T04:02:52;11.52;;;5.07;;
21444;SDS011;10883;51.946;20.140;2023-05-15T04:05:18;8.40;;;5.50;;
21444;SDS011;10883;51.946;20.140;2023-05-15T04:07:45;7.05;;;5.45;;
21444;SDS011;10883;51.946;20.140;2023-05-15T04:10:11;10.30;;;6.30;;
21444;SDS011;10883;51.946;20.140;2023-05-15T04:12:37;11.93;;;7.60;;
21444;SDS011;10883;51.946;20.140;2023-05-15T04:15:18;9.50;;;6.72;;
21444;SDS011;10883;51.946;20.140;2023-05-15T04:17:46;9.82;;;5.78;;
21444;SDS011;10883;51.946;20.140;2023-05-15T04:20:13;10.30;;;5.68;;
21444;SDS011;10883;51.946;20.140;2023-05-15T04:22:41;7.38;;;5.70;;
21444;SDS011;10883;51.946;20.140;2023-05-15T04:25:07;7.10;;;5.72;;
21444;SDS011;10883;51.946;20.140;2023-05-15T04:27:34;7.78;;;6.22;;
21444;SDS011;10883;51.946;20.140;2023-05-15T04:30:00;8.07;;;6.65;;
21444;SDS011;10883;51.946;20.140;2023-05-15T04:32:27;8.90;;;6.00;;
21444;SDS011;10883;51.946;20.140;2023-05-15T04:34:52;9.70;;;6.68;;
21444;SDS011;10883;51.946;20.140;2023-05-15T04:37:18;10.63;;;6.90;;
21444;SDS011;10883;51.946;20.140;2023-05-15T04:39:44;8.85;;;6.72;;
21444;SDS011;10883;51.946;20.140;2023-05-15T04:42:10;8.15;;;6.32;;
21444;SDS011;10883;51.946;20.140;2023-05-15T04:44:36;9.65;;;6.97;;
21444;SDS011;10883;51.946;20.140;2023-05-15T04:47:01;9.40;;;6.30;;
21444;SDS011;10883;51.946;20.140;2023-05-15T04:49:27;8.85;;;6.45;;
21444;SDS011;10883;51.946;20.140;2023-05-15T16:06:26;10.77;;;7.38;;
21444;SDS011;10883;51.946;20.140;2023-05-15T16:08:52;13.98;;;8.45;;
21444;SDS011;10883;51.946;20.140;2023-05-15T16:11:18;14.40;;;9.98;;
21444;SDS011;10883;51.946;20.140;2023-05-15T16:13:43;17.65;;;10.18;;
21444;SDS011;10883;51.946;20.140;2023-05-15T16:16:09;13.90;;;9.40;;
21444;SDS011;10883;51.946;20.140;2023-05-15T16:18:35;15.80;;;9.23;;
21444;SDS011;10883;51.946;20.140;2023-05-15T16:21:01;10.73;;;8.65;;
21444;SDS011;10883;51.946;20.140;2023-05-15T16:23:26;9.88;;;7.72;;
21444;SDS011;10883;51.946;20.140;2023-05-15T16:25:52;10.30;;;7.15;;
21444;SDS011;10883;51.946;20.140;2023-05-15T16:28:18;17.42;;;8.98;;
21444;SDS011;10883;51.946;20.140;2023-05-15T16:30:43;17.98;;;9.18;;
21444;SDS011;10883;51.946;20.140;2023-05-15T16:33:11;23.08;;;9.23;;
21444;SDS011;10883;51.946;20.140;2023-05-15T16:35:37;31.65;;;12.95;;
21444;SDS011;10883;51.946;20.140;2023-05-15T16:38:03;21.80;;;10.88;;
21444;SDS011;10883;51.946;20.140;2023-05-15T16:40:29;34.75;;;14.52;;
21444;SDS011;10883;51.946;20.140;2023-05-15T16:42:55;11.70;;;7.55;;
21444;SDS011;10883;51.946;20.140;2023-05-15T16:45:20;10.07;;;7.57;;
21444;SDS011;10883;51.946;20.140;2023-05-15T16:47:46;12.38;;;8.05;;
21444;SDS011;10883;51.946;20.140;2023-05-15T16:50:12;10.38;;;6.60;;
21444;SDS011;10883;51.946;20.140;2023-05-15T16:52:38;9.85;;;7.55;;
21444;SDS011;10883;51.946;20.140;2023-05-15T16:55:09;10.85;;;7.85;;
21444;SDS011;10883;51.946;20.140;2023-05-15T16:57:37;11.43;;;7.35;;
21444;SDS011;10883;51.946;20.140;2023-05-15T17:00:04;9.07;;;5.45;;
21444;SDS011;10883;51.946;20.140;2023-05-15T17:02:34;13.57;;;7.35;;
21444;SDS011;10883;51.946;20.140;2023-05-15T17:05:00;11.73;;;6.93;;
21444;SDS011;10883;51.946;20.140;2023-05-15T17:07:27;11.95;;;6.47;;
21444;SDS011;10883;51.946;20.140;2023-05-15T17:09:53;9.50;;;7.07;;
21444;SDS011;10883;51.946;20.140;2023-05-15T17:12:20;15.10;;;7.68;;
21444;SDS011;10883;51.946;20.140;2023-05-15T17:14:46;7.32;;;5.45;;
21444;SDS011;10883;51.946;20.140;2023-05-15T17:17:12;13.30;;;6.70;;
21444;SDS011;10883;51.946;20.140;2023-05-15T17:19:38;7.13;;;5.15;;
21444;SDS011;10883;51.946;20.140;2023-05-15T17:22:04;5.57;;;3.85;;
21444;SDS011;10883;51.946;20.140;2023-05-15T17:24:29;8.65;;;4.15;;
21444;SDS011;10883;51.946;20.140;2023-05-15T17:26:55;5.55;;;4.30;;
21444;SDS011;10883;51.946;20.140;2023-05-15T17:29:21;13.73;;;6.93;;
21444;SDS011;10883;51.946;20.140;2023-05-15T17:31:48;24.10;;;10.32;;
21444;SDS011;10883;51.946;20.140;2023-05-15T17:34:14;12.23;;;7.57;;
21444;SDS011;10883;51.946;20.140;2023-05-15T17:36:40;14.38;;;7.63;;
21444;SDS011;10883;51.946;20.140;2023-05-15T17:39:08;9.27;;;6.55;;
21444;SDS011;10883;51.946;20.140;2023-05-15T17:41:34;9.45;;;6.35;;
21444;SDS011;10883;51.946;20.140;2023-05-15T17:44:01;6.78;;;4.75;;
21444;SDS011;10883;51.946;20.140;2023-05-15T17:46:26;8.02;;;6.38;;
21444;SDS011;10883;51.946;20.140;2023-05-15T17:48:52;6.07;;;3.90;;
21444;SDS011;10883;51.946;20.140;2023-05-15T17:51:18;13.80;;;6.63;;
21444;SDS011;10883;51.946;20.140;2023-05-15T17:53:44;14.50;;;8.20;;
21444;SDS011;10883;51.946;20.140;2023-05-15T17:56:10;8.80;;;5.22;;
21444;SDS011;10883;51.946;20.140;2023-05-15T17:58:36;5.03;;;3.22;;
21444;SDS011;10883;51.946;20.140;2023-05-15T18:01:02;5.53;;;3.40;;
21444;SDS011;10883;51.946;20.140;2023-05-15T18:03:27;4.68;;;2.60;;
21444;SDS011;10883;51.946;20.140;2023-05-15T18:05:53;6.10;;;3.20;;
21444;SDS011;10883;51.946;20.140;2023-05-15T18:08:19;7.90;;;3.72;;
21444;SDS011;10883;51.946;20.140;2023-05-15T18:10:45;6.20;;;3.80;;
21444;SDS011;10883;51.946;20.140;2023-05-15T18:13:11;7.63;;;3.97;;
21444;SDS011;10883;51.946;20.140;2023-05-15T18:15:37;4.32;;;3.65;;
21444;SDS011;10883;51.946;20.140;2023-05-15T18:18:03;8.95;;;4.60;;
21444;SDS011;10883;51.946;20.140;2023-05-15T18:20:29;6.78;;;4.30;;
21444;SDS011;10883;51.946;20.140;2023-05-15T18:22:55;7.75;;;5.20;;
21444;SDS011;10883;51.946;20.140;2023-05-15T18:25:21;12.07;;;6.03;;
21444;SDS011;10883;51.946;20.140;2023-05-15T18:27:47;10.40;;;6.20;;
21444;SDS011;10883;51.946;20.140;2023-05-15T18:30:13;10.98;;;7.18;;
21444;SDS011;10883;51.946;20.140;2023-05-15T18:32:39;15.48;;;7.68;;
21444;SDS011;10883;51.946;20.140;2023-05-15T18:35:05;14.30;;;7.15;;
21444;SDS011;10883;51.946;20.140;2023-05-15T18:37:31;10.98;;;5.95;;
21444;SDS011;10883;51.946;20.140;2023-05-15T18:39:57;8.73;;;5.45;;
21444;SDS011;10883;51.946;20.140;2023-05-15T18:42:27;7.30;;;4.72;;
21444;SDS011;10883;51.946;20.140;2023-05-15T18:44:53;10.27;;;5.60;;
21444;SDS011;10883;51.946;20.140;2023-05-15T18:47:19;7.07;;;5.05;;
21444;SDS011;10883;51.946;20.140;2023-05-15T18:49:45;7.53;;;5.20;;
21444;SDS011;10883;51.946;20.140;2023-05-15T18:52:12;8.10;;;5.80;;
21444;SDS011;10883;51.946;20.140;2023-05-15T18:54:39;5.72;;;4.47;;
21444;SDS011;10883;51.946;20.140;2023-05-15T18:57:05;7.35;;;5.47;;
21444;SDS011;10883;51.946;20.140;2023-05-15T18:59:32;8.15;;;4.35;;
21444;SDS011;10883;51.946;20.140;2023-05-15T19:02:08;8.18;;;4.47;;
21444;SDS011;10883;51.946;20.140;2023-05-15T19:04:34;10.68;;;5.55;;
21444;SDS011;10883;51.946;20.140;2023-05-15T19:07:00;9.38;;;5.00;;
21444;SDS011;10883;51.946;20.140;2023-05-15T19:09:26;9.10;;;5.15;;
21444;SDS011;10883;51.946;20.140;2023-05-15T19:11:51;10.07;;;5.32;;
21444;SDS011;10883;51.946;20.140;2023-05-15T19:14:17;10.50;;;4.90;;
21444;SDS011;10883;51.946;20.140;2023-05-15T19:16:44;9.38;;;5.20;;
21444;SDS011;10883;51.946;20.140;2023-05-15T19:19:10;8.90;;;6.75;;
21444;SDS011;10883;51.946;20.140;2023-05-15T19:21:36;9.55;;;7.10;;
21444;SDS011;10883;51.946;20.140;2023-05-15T19:24:02;10.73;;;7.75;;
21444;SDS011;10883;51.946;20.140;2023-05-15T19:26:28;10.02;;;7.40;;
21444;SDS011;10883;51.946;20.140;2023-05-15T19:28:54;9.93;;;7.30;;
21444;SDS011;10883;51.946;20.140;2023-05-15T19:31:20;11.40;;;7.00;;
21444;SDS011;10883;51.946;20.140;2023-05-15T19:33:46;11.13;;;6.43;;
21444;SDS011;10883;51.946;20.140;2023-05-15T19:36:12;9.60;;;6.28;;
21444;SDS011;10883;51.946;20.140;2023-05-15T19:38:38;9.38;;;5.88;;
21444;SDS011;10883;51.946;20.140;2023-05-15T19:41:04;13.18;;;6.78;;
21444;SDS011;10883;51.946;20.140;2023-05-15T19:43:30;9.38;;;5.63;;
21444;SDS011;10883;51.946;20.140;2023-05-15T19:46:00;12.05;;;7.80;;
21444;SDS011;10883;51.946;20.140;2023-05-15T19:48:26;13.60;;;8.35;;
21444;SDS011;10883;51.946;20.140;2023-05-15T19:50:52;9.95;;;6.40;;
21444;SDS011;10883;51.946;20.140;2023-05-15T19:53:18;9.13;;;5.47;;
21444;SDS011;10883;51.946;20.140;2023-05-15T19:55:44;7.38;;;5.18;;
21444;SDS011;10883;51.946;20.140;2023-05-15T19:58:10;9.85;;;6.65;;
21444;SDS011;10883;51.946;20.140;2023-05-15T20:00:36;10.80;;;6.55;;
21444;SDS011;10883;51.946;20.140;2023-05-15T20:03:01;10.75;;;7.22;;
21444;SDS011;10883;51.946;20.140;2023-05-15T20:05:27;9.13;;;5.82;;
21444;SDS011;10883;51.946;20.140;2023-05-15T20:07:53;7.80;;;5.10;;
21444;SDS011;10883;51.946;20.140;2023-05-15T20:10:19;11.32;;;6.25;;
21444;SDS011;10883;51.946;20.140;2023-05-15T20:12:45;7.25;;;5.93;;
21444;SDS011;10883;51.946;20.140;2023-05-15T20:15:12;7.22;;;5.53;;
21444;SDS011;10883;51.946;20.140;2023-05-15T20:17:38;8.23;;;5.80;;
21444;SDS011;10883;51.946;20.140;2023-05-15T20:20:08;6.72;;;4.82;;
21444;SDS011;10883;51.946;20.140;2023-05-15T20:22:42;8.18;;;5.68;;
21444;SDS011;10883;51.946;20.140;2023-05-15T20:25:08;8.15;;;5.82;;
21444;SDS011;10883;51.946;20.140;2023-05-15T20:27:35;7.88;;;5.75;;
21444;SDS011;10883;51.946;20.140;2023-05-15T20:30:01;8.60;;;5.82;;
21444;SDS011;10883;51.946;20.140;2023-05-15T20:32:28;10.23;;;6.90;;
21444;SDS011;10883;51.946;20.140;2023-05-15T20:34:54;8.88;;;6.75;;
21444;SDS011;10883;51.946;20.140;2023-05-15T20:37:20;9.98;;;7.20;;
21444;SDS011;10883;51.946;20.140;2023-05-15T20:39:51;9.55;;;7.15;;
21444;SDS011;10883;51.946;20.140;2023-05-15T20:42:20;11.63;;;7.70;;
21444;SDS011;10883;51.946;20.140;2023-05-15T20:44:46;11.02;;;7.85;;
21444;SDS011;10883;51.946;20.140;2023-05-15T20:47:12;10.13;;;7.13;;
21444;SDS011;10883;51.946;20.140;2023-05-15T20:49:39;11.50;;;7.60;;
21444;SDS011;10883;51.946;20.140;2023-05-15T20:52:05;11.15;;;7.50;;
21444;SDS011;10883;51.946;20.140;2023-05-15T20:54:30;15.25;;;7.68;;
21444;SDS011;10883;51.946;20.140;2023-05-15T20:56:56;11.07;;;6.60;;
21444;SDS011;10883;51.946;20.140;2023-05-15T20:59:22;10.48;;;7.68;;
21444;SDS011;10883;51.946;20.140;2023-05-15T21:01:48;8.80;;;6.32;;
21444;SDS011;10883;51.946;20.140;2023-05-15T21:04:13;9.25;;;6.68;;
21444;SDS011;10883;51.946;20.140;2023-05-15T21:06:40;8.48;;;5.97;;
21444;SDS011;10883;51.946;20.140;2023-05-15T21:09:06;9.15;;;6.88;;
21444;SDS011;10883;51.946;20.140;2023-05-15T21:11:31;11.88;;;7.10;;
21444;SDS011;10883;51.946;20.140;2023-05-15T21:13:57;10.98;;;6.53;;
21444;SDS011;10883;51.946;20.140;2023-05-15T21:16:23;9.18;;;6.63;;
21444;SDS011;10883;51.946;20.140;2023-05-15T21:18:49;7.80;;;5.65;;
21444;SDS011;10883;51.946;20.140;2023-05-15T21:21:14;9.35;;;6.93;;
21444;SDS011;10883;51.946;20.140;2023-05-15T21:23:40;10.00;;;6.70;;
21444;SDS011;10883;51.946;20.140;2023-05-15T21:26:06;8.75;;;6.68;;
21444;SDS011;10883;51.946;20.140;2023-05-15T21:28:33;7.63;;;6.00;;
21444;SDS011;10883;51.946;20.140;2023-05-15T21:31:04;7.28;;;5.80;;
21444;SDS011;10883;51.946;20.140;2023-05-15T21:33:33;6.70;;;5.43;;
21444;SDS011;10883;51.946;20.140;2023-05-15T21:36:02;10.18;;;6.32;;
21444;SDS011;10883;51.946;20.140;2023-05-15T21:38:29;9.20;;;6.95;;
21444;SDS011;10883;51.946;20.140;2023-05-15T21:40:55;9.00;;;6.38;;
21444;SDS011;10883;51.946;20.140;2023-05-15T21:43:21;12.73;;;6.43;;
21444;SDS011;10883;51.946;20.140;2023-05-15T21:45:47;8.93;;;6.18;;
21444;SDS011;10883;51.946;20.140;2023-05-15T21:48:13;10.07;;;6.70;;
21444;SDS011;10883;51.946;20.140;2023-05-15T21:50:39;8.73;;;7.10;;
21444;SDS011;10883;51.946;20.140;2023-05-15T21:53:05;9.27;;;7.32;;
21444;SDS011;10883;51.946;20.140;2023-05-15T21:55:30;11.68;;;7.25;;
21444;SDS011;10883;51.946;20.140;2023-05-15T21:57:56;12.07;;;7.43;;
21444;SDS011;10883;51.946;20.140;2023-05-15T22:00:22;9.27;;;7.25;;
21444;SDS011;10883;51.946;20.140;2023-05-15T22:02:51;9.70;;;7.22;;
21444;SDS011;10883;51.946;20.140;2023-05-15T22:05:16;7.72;;;6.43;;
21444;SDS011;10883;51.946;20.140;2023-05-15T22:07:42;8.50;;;7.15;;
21444;SDS011;10883;51.946;20.140;2023-05-15T22:10:08;8.35;;;7.40;;
21444;SDS011;10883;51.946;20.140;2023-05-15T22:12:40;11.57;;;7.15;;
21444;SDS011;10883;51.946;20.140;2023-05-15T22:15:06;10.27;;;7.55;;
21444;SDS011;10883;51.946;20.140;2023-05-15T22:17:33;12.07;;;7.57;;
21444;SDS011;10883;51.946;20.140;2023-05-15T22:20:01;12.15;;;7.95;;
21444;SDS011;10883;51.946;20.140;2023-05-15T22:22:37;10.00;;;7.47;;
21444;SDS011;10883;51.946;20.140;2023-05-15T22:25:05;11.15;;;9.20;;
21444;SDS011;10883;51.946;20.140;2023-05-15T22:27:31;10.73;;;8.38;;
21444;SDS011;10883;51.946;20.140;2023-05-15T22:29:58;17.52;;;10.95;;
21444;SDS011;10883;51.946;20.140;2023-05-15T22:32:24;11.35;;;8.63;;
21444;SDS011;10883;51.946;20.140;2023-05-15T22:34:49;15.30;;;9.07;;
21444;SDS011;10883;51.946;20.140;2023-05-15T22:37:15;13.35;;;9.90;;
21444;SDS011;10883;51.946;20.140;2023-05-15T22:39:41;13.93;;;9.88;;
21444;SDS011;10883;51.946;20.140;2023-05-15T22:42:07;13.50;;;10.63;;
21444;SDS011;10883;51.946;20.140;2023-05-15T22:44:33;12.82;;;9.90;;
21444;SDS011;10883;51.946;20.140;2023-05-15T22:47:00;12.75;;;9.98;;
21444;SDS011;10883;51.946;20.140;2023-05-15T22:49:25;13.85;;;10.27;;
21444;SDS011;10883;51.946;20.140;2023-05-15T22:51:52;14.50;;;10.48;;
21444;SDS011;10883;51.946;20.140;2023-05-15T22:54:18;16.15;;;11.05;;
21444;SDS011;10883;51.946;20.140;2023-05-15T22:56:52;16.98;;;10.80;;
21444;SDS011;10883;51.946;20.140;2023-05-15T22:59:18;14.63;;;11.07;;
21444;SDS011;10883;51.946;20.140;2023-05-15T23:01:45;14.10;;;11.38;;
21444;SDS011;10883;51.946;20.140;2023-05-15T23:04:11;15.65;;;11.68;;
21444;SDS011;10883;51.946;20.140;2023-05-15T23:06:37;15.02;;;11.13;;
21444;SDS011;10883;51.946;20.140;2023-05-15T23:09:06;16.08;;;12.20;;
21444;SDS011;10883;51.946;20.140;2023-05-15T23:11:32;14.68;;;11.48;;
21444;SDS011;10883;51.946;20.140;2023-05-15T23:13:58;15.18;;;10.82;;
21444;SDS011;10883;51.946;20.140;2023-05-15T23:16:25;16.02;;;12.13;;
21444;SDS011;10883;51.946;20.140;2023-05-15T23:18:51;14.85;;;10.52;;
21444;SDS011;10883;51.946;20.140;2023-05-15T23:21:19;16.17;;;11.65;;
21444;SDS011;10883;51.946;20.140;2023-05-15T23:23:45;13.15;;;11.45;;
21444;SDS011;10883;51.946;20.140;2023-05-15T23:26:12;16.50;;;11.18;;
21444;SDS011;10883;51.946;20.140;2023-05-15T23:28:38;15.38;;;11.40;;
21444;SDS011;10883;51.946;20.140;2023-05-15T23:31:04;16.25;;;12.52;;
21444;SDS011;10883;51.946;20.140;2023-05-15T23:33:30;15.98;;;12.23;;
21444;SDS011;10883;51.946;20.140;2023-05-15T23:35:57;16.45;;;12.98;;
21444;SDS011;10883;51.946;20.140;2023-05-15T23:38:22;14.38;;;11.35;;
21444;SDS011;10883;51.946;20.140;2023-05-15T23:40:48;16.98;;;12.15;;
21444;SDS011;10883;51.946;20.140;2023-05-15T23:43:14;17.17;;;13.38;;
21444;SDS011;10883;51.946;20.140;2023-05-15T23:45:41;15.40;;;11.65;;
21444;SDS011;10883;51.946;20.140;2023-05-15T23:48:07;16.50;;;12.25;;
21444;SDS011;10883;51.946;20.140;2023-05-15T23:50:33;16.15;;;12.23;;
21444;SDS011;10883;51.946;20.140;2023-05-15T23:52:59;15.20;;;12.40;;
21444;SDS011;10883;51.946;20.140;2023-05-15T23:55:25;14.90;;;12.32;;
21444;SDS011;10883;51.946;20.140;2023-05-15T23:57:51;17.92;;;12.15;;
